Time;durP1;ratioP1;P1;durP2;ratioP2;P2;SDS_P1;SDS_P2;PMS_P1;PMS_P2;Temp;Humidity;BMP_temperature;BMP_pressure;BME280_temperature;BME280_humidity;BME280_pressure;Samples;Min_cycle;Max_cycle;Signal;HPM_P1;HPM_P2
2023/01/24 00:01:30;;;;;;;16.73;8.40;;;;;;;-5.11;100.00;102750.56;4945139;29;20098;-96
2023/01/24 00:07:43;;;;;;;14.82;8.63;;;;;;;-5.07;100.00;102768.41;4944002;29;20035;-96
2023/01/24 00:10:55;;;;;;;14.15;8.23;;;;;;;-5.29;100.00;102748.97;4944850;29;20067;-96
2023/01/24 00:14:05;;;;;;;;;;;;;;;;;;;;;
2023/01/24 00:20:14;;;;;;;18.50;9.40;;;;;;;-5.34;100.00;102749.53;4944788;29;20084;-96
2023/01/24 11:07:58;;;;;;;;;;;;;;;;;;;;;
2023/01/24 11:22:07;;;;;;;26.45;19.38;;;;;;;12.15;44.50;102844.19;4774295;30;20071;-96
2023/01/24 11:45:43;;;;;;;29.45;20.98;;;;;;;15.31;37.33;102852.25;6002259;22;6866726;-94
2023/01/24 11:48:11;;;;;;;28.25;19.63;;;;;;;16.07;36.37;102842.31;6259511;22;20035;-95
2023/01/24 11:50:50;;;;;;;27.60;20.90;;;;;;;16.76;35.62;102841.06;6259195;22;20035;-95
2023/01/24 11:54:08;;;;;;;31.05;21.52;;;;;;;16.11;35.06;102807.38;6258665;22;20094;-95
2023/01/24 11:56:52;;;;;;;28.40;19.55;;;;;;;16.69;35.29;102841.31;6259010;22;20003;-96
2023/01/24 11:59:54;;;;;;;25.42;17.05;;;;;;;16.41;35.74;102833.88;6258929;22;20064;-95
2023/01/24 12:02:58;;;;;;;22.73;17.33;;;;;;;15.84;36.92;102831.06;6259251;22;20326;-95
2023/01/24 12:05:47;;;;;;;22.65;16.73;;;;;;;16.63;36.56;102812.06;6257885;22;20067;-96
2023/01/24 12:08:50;;;;;;;24.27;15.00;;;;;;;16.72;35.52;102784.72;6189349;22;20035;-96
2023/01/24 12:11:36;;;;;;;18.98;14.82;;;;;;;15.23;37.60;102796.25;6259007;22;20047;-96
2023/01/24 12:14:20;;;;;;;20.75;15.60;;;;;;;16.33;36.74;102811.66;6258580;22;20031;-95
2023/01/24 12:17:12;;;;;;;26.25;18.48;;;;;;;15.75;37.79;102779.41;6258832;22;20091;-96
2023/01/24 12:19:48;;;;;;;23.52;16.30;;;;;;;15.50;38.23;102805.53;6192065;22;20035;-95
2023/01/24 12:22:23;;;;;;;23.60;16.58;;;;;;;14.94;38.99;102790.41;6258252;22;20007;-95
2023/01/24 12:25:11;;;;;;;24.08;17.15;;;;;;;15.26;38.42;102793.50;6259048;22;20003;-95
2023/01/24 12:27:48;;;;;;;24.67;17.33;;;;;;;14.91;39.39;102796.56;6258958;22;20098;-95
2023/01/24 12:30:18;;;;;;;24.70;18.55;;;;;;;14.59;39.93;102778.75;6259124;22;20003;-95
2023/01/24 12:32:53;;;;;;;28.23;18.88;;;;;;;14.78;39.60;102782.34;6257847;22;20007;-96
2023/01/24 12:35:41;;;;;;;27.98;18.45;;;;;;;14.16;40.58;102755.13;6258582;22;20010;-96
2023/01/24 12:38:19;;;;;;;23.50;17.02;;;;;;;14.64;39.68;102753.44;6257850;22;19999;-95
2023/01/24 12:41:00;;;;;;;24.70;17.60;;;;;;;14.83;39.53;102777.81;6258541;22;20004;-96
2023/01/24 12:44:03;;;;;;;21.10;17.20;;;;;;;14.52;40.68;102759.91;6256711;22;20014;-95
2023/01/24 12:46:56;;;;;;;21.92;15.73;;;;;;;14.31;40.92;102739.00;6199671;23;20018;-95
2023/01/24 12:49:37;;;;;;;22.52;16.60;;;;;;;13.64;41.73;102755.16;6225502;23;20004;-95
2023/01/24 12:52:43;;;;;;;24.70;15.93;;;;;;;13.89;41.89;102751.75;6228912;22;20064;-96
2023/01/24 12:55:15;;;;;;;21.88;17.08;;;;;;;13.67;42.37;102782.75;6200796;23;20000;-95
2023/01/24 12:57:56;;;;;;;25.42;17.65;;;;;;;13.36;42.07;102757.81;6221289;23;20337;-96
2023/01/24 13:00:49;;;;;;;21.00;16.48;;;;;;;13.00;42.97;102755.44;6221576;22;20008;-95
2023/01/24 13:03:42;;;;;;;23.95;17.02;;;;;;;13.14;43.60;102767.97;6220718;23;20379;-95
2023/01/24 13:06:35;;;;;;;23.08;16.27;;;;;;;12.52;44.45;102768.09;6220705;22;20376;-96
2023/01/24 13:09:21;;;;;;;22.27;15.98;;;;;;;12.18;45.74;102733.63;6220647;22;20295;-96
2023/01/24 13:11:49;;;;;;;21.70;14.00;;;;;;;10.60;48.15;102728.81;6221226;22;20004;-95
2023/01/24 13:14:40;;;;;;;23.98;15.20;;;;;;;9.84;50.77;102737.94;6221307;22;20008;-95
2023/01/24 13:17:36;;;;;;;20.95;14.27;;;;;;;9.33;52.30;102749.97;6221331;22;20012;-95
2023/01/24 13:20:35;;;;;;;25.10;16.15;;;;;;;8.36;55.62;102722.88;6220864;22;20035;-95
2023/01/24 13:23:52;;;;;;;22.77;16.65;;;;;;;7.63;58.03;102720.19;6220805;22;20138;-95
2023/01/24 13:26:42;;;;;;;26.15;16.83;;;;;;;7.41;60.33;102755.50;6216932;22;20003;-96
2023/01/24 13:29:44;;;;;;;19.92;14.18;;;;;;;6.96;61.85;102730.94;6221237;22;20004;-96
2023/01/24 13:32:19;;;;;;;20.98;16.15;;;;;;;6.45;64.86;102740.56;6221171;23;20004;-94
2023/01/24 13:34:52;;;;;;;20.30;15.07;;;;;;;6.20;65.12;102733.78;6221790;22;20008;-95
2023/01/24 13:37:24;;;;;;;20.00;13.90;;;;;;;6.07;66.11;102703.94;6221675;22;20034;-96
2023/01/24 13:40:18;;;;;;;17.63;12.75;;;;;;;5.82;66.43;102705.63;6221129;22;20091;-96
2023/01/24 13:42:44;;;;;;;16.80;12.75;;;;;;;5.73;68.92;102726.13;6221086;22;20004;-95
2023/01/24 13:45:31;;;;;;;18.98;12.55;;;;;;;5.56;68.83;102728.72;6222911;22;20073;-94
2023/01/24 13:48:03;;;;;;;12.25;9.30;;;;;;;5.44;69.77;102733.78;6220504;22;20008;-96
2023/01/24 13:50:32;;;;;;;13.52;8.80;;;;;;;5.15;70.35;102721.84;6222112;23;20004;-94
2023/01/24 13:52:59;;;;;;;12.68;9.32;;;;;;;4.97;71.59;102697.03;6200600;22;20515;-95
2023/01/24 13:55:25;;;;;;;15.48;10.10;;;;;;;5.09;71.96;102727.78;6220264;23;20000;-95
2023/01/24 13:58:16;;;;;;;19.65;11.90;;;;;;;5.14;72.28;102736.34;6219903;22;20011;-95
2023/01/24 14:00:41;;;;;;;16.85;10.55;;;;;;;4.96;73.24;102720.94;6220012;22;20065;-95
2023/01/24 14:03:34;;;;;;;14.73;9.32;;;;;;;4.95;73.43;102734.59;6220503;22;20008;-95
2023/01/24 14:05:59;;;;;;;;;;;;;;;4.93;74.07;102731.16;6223397;22;20086;-94
2023/01/24 14:08:24;;;;;;;16.33;10.10;;;;;;;4.85;74.03;102728.59;6226407;22;19987;-96
2023/01/24 14:11:18;;;;;;;13.27;10.40;;;;;;;4.71;74.03;102720.84;6222670;22;20107;-96
2023/01/24 14:13:46;;;;;;;15.50;11.18;;;;;;;4.59;74.77;102725.06;6203916;23;20004;-94
2023/01/24 14:16:27;;;;;;;16.83;11.13;;;;;;;4.55;76.14;102738.69;6224080;22;20034;-94
2023/01/24 14:18:57;;;;;;;16.13;10.55;;;;;;;4.54;76.06;102737.84;6223183;22;20040;-94
2023/01/24 14:21:51;;;;;;;13.77;10.70;;;;;;;4.26;76.41;102707.00;6221830;22;20007;-95
2023/01/24 14:24:23;;;;;;;16.55;11.13;;;;;;;4.44;76.99;102741.22;6155799;22;20015;-95
2023/01/24 14:26:54;;;;;;;20.13;14.02;;;;;;;4.11;78.09;102699.25;6222838;22;20078;-96
2023/01/24 14:29:21;;;;;;;25.60;17.37;;;;;;;3.92;80.70;102700.00;6221592;23;20004;-95
2023/01/24 14:31:53;;;;;;;24.77;16.73;;;;;;;3.96;79.48;102697.47;6221114;22;20034;-94
2023/01/24 14:34:43;;;;;;;24.45;18.35;;;;;;;4.02;79.80;102714.53;6221066;22;20004;-94
2023/01/24 14:37:11;;;;;;;26.20;18.02;;;;;;;3.97;79.92;102713.66;6220511;22;20141;-94
2023/01/24 14:39:37;;;;;;;26.75;19.52;;;;;;;3.73;81.42;102704.09;6221247;23;20006;-95
2023/01/24 14:42:06;;;;;;;30.45;18.60;;;;;;;3.71;81.54;102701.56;6220719;22;20004;-96
2023/01/24 14:44:54;;;;;;;28.33;18.42;;;;;;;3.85;81.96;102745.94;6233711;22;20008;-95
2023/01/24 14:47:25;;;;;;;27.70;17.42;;;;;;;3.51;82.10;102703.09;6230295;22;20499;-95
2023/01/24 14:49:54;;;;;;;25.05;17.80;;;;;;;3.54;84.94;102723.56;6250180;22;20026;-95
2023/01/24 14:52:28;;;;;;;18.67;14.35;;;;;;;3.59;83.62;102716.78;6249571;22;20008;-95
2023/01/24 14:55:12;;;;;;;19.67;13.20;;;;;;;3.46;84.31;102709.84;6249930;22;20450;-94
2023/01/24 14:57:38;;;;;;;19.05;12.93;;;;;;;3.39;84.74;102717.47;6249689;22;20011;-94
2023/01/24 15:00:11;;;;;;;19.58;14.50;;;;;;;3.47;86.03;102734.56;6249676;22;20007;-94
2023/01/24 15:02:52;;;;;;;23.17;15.32;;;;;;;3.47;85.89;102737.13;6249813;22;20004;-94
2023/01/24 15:05:23;;;;;;;22.25;15.77;;;;;;;3.14;87.54;102701.06;6249857;22;20000;-95
2023/01/24 15:07:49;;;;;;;22.98;15.68;;;;;;;2.94;88.79;102687.25;6249386;22;20007;-95
2023/01/24 15:10:15;;;;;;;25.50;15.90;;;;;;;3.09;90.47;102745.22;6250514;22;20078;-95
2023/01/24 15:12:41;;;;;;;24.95;16.38;;;;;;;2.93;89.44;102696.59;6249834;22;20014;-96
2023/01/24 15:15:18;;;;;;;23.10;16.00;;;;;;;2.86;89.65;102707.56;6249567;22;20438;-94
2023/01/24 15:17:47;;;;;;;23.67;15.75;;;;;;;2.70;91.59;102698.03;6249821;22;20003;-95
2023/01/24 15:20:19;;;;;;;23.27;16.95;;;;;;;2.71;93.01;102725.25;6249914;22;20361;-96
2023/01/24 15:22:52;;;;;;;25.20;15.27;;;;;;;2.84;92.29;102747.50;6249794;22;20003;-96
2023/01/24 15:25:29;;;;;;;28.55;16.52;;;;;;;2.47;93.77;102698.63;6249544;22;20071;-96
2023/01/24 15:27:57;;;;;;;24.27;16.10;;;;;;;2.51;94.54;102723.31;6249456;22;20004;-95
2023/01/24 15:30:27;;;;;;;25.75;16.90;;;;;;;2.35;96.45;102716.31;6251303;22;20430;-96
2023/01/24 15:32:55;;;;;;;24.85;17.15;;;;;;;2.46;96.53;102736.81;6250952;22;20434;-95
2023/01/24 15:35:36;;;;;;;23.60;17.45;;;;;;;2.12;97.35;102700.69;6251113;22;20440;-96
2023/01/24 15:38:10;;;;;;;27.67;15.50;;;;;;;2.11;97.18;102710.03;6250346;22;20000;-96
2023/01/24 15:40:48;;;;;;;25.30;15.90;;;;;;;1.91;97.50;102697.00;6250835;22;20199;-95
2023/01/24 15:43:48;;;;;;;22.30;14.90;;;;;;;2.10;97.30;102749.09;6250542;22;19999;-96
2023/01/24 15:49:05;;;;;;;25.67;17.23;;;;;;;1.58;99.14;102699.88;6246283;22;20012;-96
2023/01/24 15:51:34;;;;;;;27.40;16.75;;;;;;;1.48;100.00;102708.19;6220935;23;20064;-96
2023/01/24 15:54:00;;;;;;;25.27;16.83;;;;;;;1.47;100.00;102726.84;6219491;22;20008;-95
2023/01/24 15:56:27;;;;;;;25.67;15.27;;;;;;;1.17;100.00;102699.16;6220180;23;20008;-94
2023/01/24 15:58:56;;;;;;;24.08;16.42;;;;;;;1.22;100.00;102723.00;6220858;23;20058;-96
2023/01/24 16:01:28;;;;;;;25.25;16.52;;;;;;;1.12;100.00;102726.22;6220138;22;20008;-96
2023/01/24 16:03:54;;;;;;;24.55;16.70;;;;;;;0.95;100.00;102736.06;6220017;23;20070;-96
2023/01/24 16:06:19;;;;;;;23.52;16.02;;;;;;;0.71;100.00;102716.97;6219535;22;20000;-96
2023/01/24 16:08:45;;;;;;;21.75;15.55;;;;;;;0.70;100.00;102730.50;6220207;22;20031;-96
2023/01/24 16:11:11;;;;;;;20.48;15.32;;;;;;;0.49;100.00;102717.34;6219734;23;20004;-95
2023/01/24 16:13:39;;;;;;;21.83;15.07;;;;;;;0.29;100.00;102710.16;6220037;22;20023;-96
2023/01/24 16:16:07;;;;;;;23.40;14.75;;;;;;;0.21;100.00;102711.69;6219879;23;20062;-96
2023/01/24 16:18:34;;;;;;;26.27;16.17;;;;;;;0.05;100.00;102705.41;6219536;22;20010;-95
2023/01/24 16:20:59;;;;;;;24.23;15.90;;;;;;;0.23;100.00;102745.59;6220919;23;20031;-96
2023/01/24 16:23:25;;;;;;;25.35;17.15;;;;;;;-0.05;100.00;102717.03;6221923;22;20008;-96
2023/01/24 16:25:54;;;;;;;32.72;19.73;;;;;;;-0.02;100.00;102750.09;6221435;22;20050;-95
2023/01/24 16:28:22;;;;;;;32.08;19.63;;;;;;;-0.33;100.00;102724.81;6221599;22;20327;-96
2023/01/24 16:30:49;;;;;;;33.90;20.23;;;;;;;-0.41;100.00;102723.75;6221400;22;20004;-96
2023/01/24 16:33:16;;;;;;;30.17;20.08;;;;;;;-0.48;100.00;102728.69;6221412;22;20012;-96
2023/01/24 16:35:41;;;;;;;31.60;19.70;;;;;;;-0.59;100.00;102726.69;6221560;23;20004;-96
2023/01/24 16:38:09;;;;;;;29.60;19.38;;;;;;;-0.62;100.00;102721.56;6221409;22;20027;-95
2023/01/24 16:40:34;;;;;;;29.77;18.48;;;;;;;-0.68;100.00;102742.53;6221386;22;20058;-96
2023/01/24 16:43:03;;;;;;;29.35;18.30;;;;;;;-0.63;100.00;102760.38;6221511;23;20012;-95
2023/01/24 16:45:31;;;;;;;30.52;18.25;;;;;;;-0.83;100.00;102739.59;6221814;22;20008;-95
2023/01/24 16:47:56;;;;;;;37.65;21.05;;;;;;;-1.09;100.00;102724.53;6221028;22;20011;-94
2023/01/24 16:50:22;;;;;;;33.25;19.92;;;;;;;-1.13;100.00;102722.72;6221594;22;20338;-96
2023/01/24 16:52:47;;;;;;;26.95;18.00;;;;;;;-1.16;100.00;102732.78;6221366;23;20062;-95
2023/01/24 16:55:13;;;;;;;28.73;18.80;;;;;;;-1.24;100.00;102736.75;6221199;23;20039;-95
2023/01/24 16:57:41;;;;;;;31.95;19.83;;;;;;;-1.15;100.00;102765.75;6221636;22;20012;-96
2023/01/24 17:00:11;;;;;;;30.15;18.23;;;;;;;-1.46;100.00;102727.69;6220895;23;20450;-96
2023/01/24 17:02:38;;;;;;;32.78;19.20;;;;;;;-1.40;100.00;102751.53;6220923;22;20296;-96
2023/01/24 17:05:04;;;;;;;29.00;18.77;;;;;;;-1.56;100.00;102736.69;6220498;22;20320;-96
2023/01/24 17:07:30;;;;;;;31.02;19.13;;;;;;;-1.44;100.00;102759.88;6220350;22;20004;-94
2023/01/24 17:09:55;;;;;;;30.33;19.25;;;;;;;-1.65;100.00;102722.09;6221541;22;20001;-96
2023/01/24 17:12:21;;;;;;;31.95;20.45;;;;;;;-1.58;100.00;102764.53;6220646;22;20027;-96
2023/01/24 17:14:46;;;;;;;34.88;20.15;;;;;;;-1.56;100.00;102773.03;6221055;22;20019;-96
2023/01/24 17:17:12;;;;;;;33.35;20.15;;;;;;;-1.95;100.00;102738.09;6220756;22;20163;-95
2023/01/24 17:19:37;;;;;;;30.55;18.30;;;;;;;-1.87;100.00;102762.78;6220918;22;20456;-95
2023/01/24 17:22:03;;;;;;;34.72;21.23;;;;;;;-2.09;100.00;102746.91;6220757;22;20004;-95
2023/01/24 17:24:29;;;;;;;34.67;19.85;;;;;;;-2.20;100.00;102748.22;6220813;22;20006;-95
2023/01/24 17:26:55;;;;;;;35.42;20.65;;;;;;;-2.11;100.00;102753.59;6221667;22;20004;-96
2023/01/24 17:29:27;;;;;;;31.65;20.73;;;;;;;-2.27;100.00;102744.63;6221474;22;20008;-96
2023/01/24 17:31:53;;;;;;;35.20;21.60;;;;;;;-2.22;100.00;102759.94;6227002;22;20006;-96
2023/01/24 17:34:19;;;;;;;34.85;20.13;;;;;;;-2.25;100.00;102762.41;6230947;22;20008;-95
2023/01/24 17:36:45;;;;;;;30.63;19.60;;;;;;;-2.49;100.00;102738.00;6230391;22;20012;-96
2023/01/24 17:39:11;;;;;;;35.92;21.38;;;;;;;-2.51;100.00;102733.69;6222426;22;20061;-96
2023/01/24 17:41:37;;;;;;;38.03;22.48;;;;;;;-2.59;100.00;102731.78;6222718;22;20008;-96
2023/01/24 17:44:03;;;;;;;38.00;22.80;;;;;;;-2.29;100.00;102774.09;6229357;22;20019;-96
2023/01/24 17:46:34;;;;;;;39.35;23.27;;;;;;;-2.57;100.00;102731.84;6255727;22;20008;-96
2023/01/24 17:49:00;;;;;;;44.08;25.95;;;;;;;-2.32;100.00;102763.84;6252211;22;20010;-96
2023/01/24 17:51:25;;;;;;;42.45;25.00;;;;;;;-2.42;100.00;102751.72;6250626;22;20028;-96
2023/01/24 17:53:51;;;;;;;44.17;24.27;;;;;;;-2.50;100.00;102728.72;6250069;22;20419;-96
2023/01/24 17:56:17;;;;;;;40.25;23.75;;;;;;;-2.49;100.00;102744.72;6249876;22;20006;-96
2023/01/24 17:58:44;;;;;;;43.10;24.35;;;;;;;-2.60;100.00;102727.53;6250439;22;20069;-96
2023/01/24 18:01:11;;;;;;;47.70;25.88;;;;;;;-2.37;100.00;102761.16;6250150;22;20015;-95
2023/01/24 18:03:37;;;;;;;42.17;24.23;;;;;;;-2.54;100.00;102741.19;6250196;22;20008;-96
2023/01/24 18:06:04;;;;;;;47.20;24.98;;;;;;;-2.50;100.00;102758.19;6250723;22;20063;-94
2023/01/24 18:08:30;;;;;;;46.33;24.38;;;;;;;-2.72;100.00;102728.81;6251671;22;20087;-96
2023/01/24 18:10:56;;;;;;;40.45;23.73;;;;;;;-2.55;100.00;102734.44;6251332;22;20011;-96
2023/01/24 18:13:22;;;;;;;44.75;25.45;;;;;;;-2.63;100.00;102727.44;6253257;22;20008;-96
2023/01/24 18:16:04;;;;;;;44.58;25.48;;;;;;;-2.47;100.00;102773.47;6254590;22;20011;-96
2023/01/24 18:18:29;;;;;;;43.25;24.13;;;;;;;-2.81;100.00;102731.84;6254701;22;20004;-96
2023/01/24 18:21:01;;;;;;;45.38;26.13;;;;;;;-2.73;100.00;102745.66;6255676;22;20003;-96
2023/01/24 18:23:32;;;;;;;43.90;24.17;;;;;;;-2.76;100.00;102745.50;6256475;22;20082;-96
2023/01/24 18:26:08;;;;;;;38.38;23.38;;;;;;;-2.67;100.00;102781.22;6257048;22;20058;-96
2023/01/24 18:28:35;;;;;;;41.67;23.92;;;;;;;-3.04;100.00;102736.97;6255139;22;19995;-96
2023/01/24 18:31:08;;;;;;;39.70;24.55;;;;;;;-3.06;100.00;102740.25;6253833;22;20004;-96
2023/01/24 18:33:34;;;;;;;41.25;25.92;;;;;;;-3.15;100.00;102725.63;6253562;22;20339;-96
2023/01/24 18:36:05;;;;;;;41.13;25.13;;;;;;;-2.90;100.00;102777.00;6252854;22;20004;-95
2023/01/24 18:38:31;;;;;;;45.45;26.25;;;;;;;-3.14;100.00;102736.59;6252681;22;20000;-96
2023/01/24 18:41:07;;;;;;;38.72;24.08;;;;;;;-3.11;100.00;102745.13;6251791;22;20004;-96
2023/01/24 18:43:36;;;;;;;47.30;26.70;;;;;;;-3.16;100.00;102739.06;6252424;22;20015;-96
2023/01/24 18:46:10;;;;;;;52.35;26.45;;;;;;;-3.17;100.00;102737.34;6252883;22;20092;-96
2023/01/24 18:49:06;;;;;;;46.90;26.58;;;;;;;-2.98;100.00;102769.16;6256635;22;20326;-96
2023/01/24 18:51:35;;;;;;;47.72;25.10;;;;;;;-3.18;100.00;102735.63;6253388;22;20004;-96
2023/01/24 18:54:03;;;;;;;47.00;23.65;;;;;;;-3.18;100.00;102748.25;6253219;22;20035;-95
2023/01/24 18:56:29;;;;;;;45.63;24.33;;;;;;;-3.11;100.00;102780.50;6254038;22;20063;-96
2023/01/24 18:59:20;;;;;;;44.75;24.50;;;;;;;-3.25;100.00;102753.88;6253125;22;20034;-96
2023/01/24 19:02:21;;;;;;;41.35;22.77;;;;;;;-3.22;100.00;102759.03;6125863;23;20010;-95
2023/01/24 19:05:34;;;;;;;;;;;;;;;;;;;;;
2023/01/24 19:09:18;;;;;;;;;;;;;;;;;;;;;
2023/01/24 19:11:59;;;;;;;;;;;;;;;-2.95;100.00;102784.47;6204881;23;20356;-95
2023/01/24 19:15:02;;;;;;;43.85;24.33;;;;;;;-3.21;100.00;102744.75;6188107;23;19908;-96
2023/01/24 19:18:02;;;;;;;45.67;25.38;;;;;;;-3.21;100.00;102738.03;6093586;23;20006;-95
2023/01/24 19:20:51;;;;;;;43.70;23.83;;;;;;;-3.09;100.00;102760.38;6211326;23;20009;-95
2023/01/24 19:23:46;;;;;;;47.45;22.98;;;;;;;-3.06;100.00;102779.00;6187647;23;20009;-95
2023/01/24 19:32:40;;;;;;;43.40;23.92;;;;;;;-3.05;100.00;102773.16;6278701;22;20381;-95
2023/01/24 19:43:09;;;;;;;54.38;27.50;;;;;;;-3.28;100.00;102743.66;6243252;22;19915;-94
2023/01/24 19:45:39;;;;;;;51.10;27.50;;;;;;;-3.17;100.00;102776.88;6277024;22;20459;-95
2023/01/24 19:48:06;;;;;;;48.90;25.88;;;;;;;-3.38;100.00;102754.25;6276570;22;20072;-93
2023/01/24 19:50:32;;;;;;;46.08;26.00;;;;;;;-3.32;100.00;102762.03;6276609;22;20008;-95
2023/01/24 19:52:57;;;;;;;50.55;26.17;;;;;;;-3.38;100.00;102766.88;6275353;22;20429;-95
2023/01/24 19:55:23;;;;;;;55.63;26.83;;;;;;;-3.50;100.00;102742.88;6277225;22;20007;-94
2023/01/24 19:57:52;;;;;;;52.47;27.25;;;;;;;-3.56;100.00;102757.78;6278504;22;20008;-95
2023/01/24 20:00:18;;;;;;;54.92;25.83;;;;;;;-3.50;100.00;102762.22;6277137;22;20000;-94
2023/01/24 20:02:45;;;;;;;51.90;27.25;;;;;;;-3.50;100.00;102759.69;6278161;22;20030;-94
2023/01/24 20:05:11;;;;;;;50.13;28.63;;;;;;;-3.61;100.00;102748.31;6277884;22;20004;-96
2023/01/24 20:07:37;;;;;;;55.33;27.45;;;;;;;-3.64;100.00;102746.53;6278121;22;20007;-95
2023/01/24 20:10:03;;;;;;;57.63;28.88;;;;;;;-3.51;100.00;102751.25;6277936;22;20133;-95
2023/01/24 20:12:29;;;;;;;59.30;30.25;;;;;;;-3.61;100.00;102746.63;6276836;22;20333;-94
2023/01/24 20:14:54;;;;;;;69.63;30.67;;;;;;;-3.48;100.00;102780.81;6276397;22;20011;-94
2023/01/24 20:17:20;;;;;;;58.83;32.60;;;;;;;-3.36;100.00;102752.63;6276505;22;20422;-96
2023/01/24 20:19:46;;;;;;;62.47;33.33;;;;;;;-3.33;100.00;102760.31;6276322;22;20380;-94
2023/01/24 20:22:12;;;;;;;58.72;34.08;;;;;;;-3.54;100.00;102751.13;6276749;22;20003;-95
2023/01/24 20:24:38;;;;;;;62.92;32.40;;;;;;;-3.69;100.00;102737.94;6276576;22;20012;-94
2023/01/24 20:27:04;;;;;;;59.40;30.95;;;;;;;-3.74;100.00;102737.75;6276379;22;20450;-95
2023/01/24 20:29:29;;;;;;;63.35;29.75;;;;;;;-3.80;100.00;102736.63;6276027;22;20039;-95
2023/01/24 20:31:56;;;;;;;54.92;28.95;;;;;;;-3.58;100.00;102784.63;6276684;22;20014;-96
2023/01/24 20:34:22;;;;;;;61.00;30.92;;;;;;;-3.92;100.00;102732.84;6276922;22;20087;-96
2023/01/24 20:36:48;;;;;;;60.10;32.17;;;;;;;-3.77;100.00;102757.81;6276174;22;20004;-95
2023/01/24 20:39:15;;;;;;;59.47;31.55;;;;;;;-3.75;100.00;102756.22;6276154;22;20042;-95
2023/01/24 20:41:42;;;;;;;62.60;34.30;;;;;;;-3.61;100.00;102781.97;6276471;22;20031;-95
2023/01/24 20:44:12;;;;;;;63.10;32.15;;;;;;;-3.79;100.00;102756.03;6275788;22;20050;-96
2023/01/24 20:46:37;;;;;;;59.33;31.05;;;;;;;-3.79;100.00;102754.38;6276286;22;20000;-95
2023/01/24 20:49:03;;;;;;;65.13;32.80;;;;;;;-3.73;100.00;102758.78;6276714;22;20011;-95
2023/01/24 20:51:29;;;;;;;61.47;31.83;;;;;;;-3.81;100.00;102745.03;6276337;22;20007;-95
2023/01/24 20:53:56;;;;;;;57.28;31.88;;;;;;;-3.81;100.00;102748.41;6275603;22;20422;-95
2023/01/24 20:56:22;;;;;;;63.92;30.50;;;;;;;-3.80;100.00;102741.69;6276096;22;20004;-93
2023/01/24 20:58:57;;;;;;;62.75;31.70;;;;;;;-3.80;100.00;102731.59;6275010;22;20087;-95
2023/01/24 21:01:24;;;;;;;54.47;29.10;;;;;;;-3.83;100.00;102736.53;6277054;22;20003;-95
2023/01/24 21:03:50;;;;;;;66.13;32.80;;;;;;;-3.71;100.00;102737.00;6276166;22;20091;-95
2023/01/24 21:06:19;;;;;;;62.72;31.67;;;;;;;-3.73;100.00;102738.59;6276150;22;20050;-94
2023/01/24 21:08:45;;;;;;;65.25;31.80;;;;;;;-3.55;100.00;102768.75;6275910;22;20007;-94
2023/01/24 21:11:19;;;;;;;68.72;34.33;;;;;;;-3.60;100.00;102755.09;6275962;22;20000;-95
2023/01/24 21:14:12;;;;;;;65.90;32.15;;;;;;;-3.68;100.00;102750.63;6275938;22;20012;-95
2023/01/24 21:16:38;;;;;;;67.78;32.38;;;;;;;-3.78;100.00;102740.97;6271342;22;20055;-94
2023/01/24 21:19:05;;;;;;;69.07;34.35;;;;;;;-3.65;100.00;102752.38;6276137;22;20007;-95
2023/01/24 21:21:36;;;;;;;68.25;31.63;;;;;;;-3.67;100.00;102748.94;6276960;22;20312;-95
2023/01/24 21:24:09;;;;;;;66.70;33.83;;;;;;;-3.46;100.00;102769.97;6276288;22;20000;-95
2023/01/24 21:26:36;;;;;;;64.18;32.63;;;;;;;-3.60;100.00;102755.94;6277407;22;20087;-93
2023/01/24 21:29:02;;;;;;;71.40;34.85;;;;;;;-3.77;100.00;102736.78;6276168;22;20007;-94
2023/01/24 21:31:28;;;;;;;62.80;32.70;;;;;;;-3.91;100.00;102719.44;6277507;22;20029;-96
2023/01/24 21:33:55;;;;;;;58.20;32.08;;;;;;;-3.93;100.00;102721.03;6276931;22;20054;-95
2023/01/24 21:36:36;;;;;;;60.30;33.63;;;;;;;-4.01;100.00;102722.41;6282692;22;20000;-96
2023/01/24 21:39:43;;;;;;;70.00;36.08;;;;;;;-4.03;100.00;102724.00;6297187;22;19983;-96
2023/01/24 21:42:09;;;;;;;72.03;36.15;;;;;;;-4.19;100.00;102704.03;6164245;23;20036;-94
2023/01/24 21:44:34;;;;;;;71.63;36.88;;;;;;;-4.12;100.00;102716.06;6160868;23;20005;-94
2023/01/24 21:47:01;;;;;;;66.85;36.10;;;;;;;-4.21;100.00;102703.13;6214152;22;20011;-94
2023/01/24 21:49:29;;;;;;;66.00;35.13;;;;;;;-4.15;100.00;102705.88;6278320;22;20083;-95
2023/01/24 21:51:58;;;;;;;67.72;35.13;;;;;;;-3.98;100.00;102696.44;6278109;22;20050;-95
2023/01/24 21:54:27;;;;;;;70.88;34.65;;;;;;;-4.07;100.00;102696.97;6277283;22;20045;-95
2023/01/24 21:59:43;;;;;;;62.80;31.95;;;;;;;-4.12;100.00;102726.16;6279584;22;20015;-95
2023/01/24 22:02:12;;;;;;;64.72;32.55;;;;;;;-4.06;100.00;102739.03;6279789;22;20008;-96
2023/01/24 22:04:38;;;;;;;75.70;36.13;;;;;;;-4.11;100.00;102701.00;6278206;22;20065;-95
2023/01/24 22:07:04;;;;;;;87.53;37.95;;;;;;;-3.60;100.00;102730.72;6278221;22;20004;-95
2023/01/24 22:09:30;;;;;;;84.25;38.78;;;;;;;-3.73;100.00;102719.28;6278403;22;20012;-96
2023/01/24 22:11:59;;;;;;;86.95;40.80;;;;;;;-3.87;100.00;102706.16;6278407;22;20004;-95
2023/01/24 22:14:30;;;;;;;74.90;36.05;;;;;;;-3.79;100.00;102728.28;6276911;22;20004;-95
2023/01/24 22:16:58;;;;;;;74.20;34.97;;;;;;;-3.97;100.00;102699.03;6278098;22;20086;-96
2023/01/24 22:19:38;;;;;;;76.30;36.50;;;;;;;-4.07;100.00;102691.91;6277992;22;20000;-95
2023/01/24 22:22:25;;;;;;;64.75;34.10;;;;;;;-3.84;100.00;102733.16;6277350;22;20367;-96
2023/01/24 22:25:00;;;;;;;74.63;36.83;;;;;;;-3.96;100.00;102730.16;6277298;22;20003;-95
2023/01/24 22:27:26;;;;;;;68.00;32.78;;;;;;;-4.33;100.00;102686.69;6276822;22;20014;-95
2023/01/24 22:29:52;;;;;;;70.57;34.17;;;;;;;-4.28;100.00;102696.09;6276882;22;20008;-95
2023/01/24 22:32:20;;;;;;;68.65;35.70;;;;;;;-4.43;100.00;102676.19;6278398;22;20000;-94
2023/01/24 22:34:47;;;;;;;59.30;31.23;;;;;;;-4.38;100.00;102702.44;6282459;22;20094;-95
2023/01/24 22:37:37;;;;;;;70.55;33.15;;;;;;;-4.24;100.00;102723.13;6276444;22;20426;-95
2023/01/24 22:40:04;;;;;;;67.00;34.38;;;;;;;-4.62;100.00;102677.09;6276284;22;20054;-95
2023/01/24 22:42:29;;;;;;;61.67;31.58;;;;;;;-4.43;100.00;102707.28;6277412;22;20442;-95
2023/01/24 22:44:55;;;;;;;73.78;36.65;;;;;;;-4.52;100.00;102680.03;6277147;22;20003;-95
2023/01/24 22:47:21;;;;;;;72.55;35.80;;;;;;;-4.61;100.00;102673.75;6278939;22;19996;-96
2023/01/24 22:49:49;;;;;;;73.18;35.53;;;;;;;-4.66;100.00;102677.75;6277666;22;20000;-96
2023/01/24 22:52:15;;;;;;;68.47;35.58;;;;;;;-4.74;100.00;102675.78;6279174;22;20027;-95
2023/01/24 22:54:41;;;;;;;73.80;33.60;;;;;;;-4.84;100.00;102671.16;6278026;22;20010;-95
2023/01/24 22:57:08;;;;;;;67.55;33.85;;;;;;;-4.78;100.00;102676.47;6278849;22;20311;-94
2023/01/24 22:59:34;;;;;;;69.15;34.10;;;;;;;-4.78;100.00;102688.19;6278896;22;20007;-95
2023/01/24 23:02:03;;;;;;;80.93;36.00;;;;;;;-4.61;100.00;102730.09;6278718;22;20030;-95
2023/01/24 23:04:29;;;;;;;67.88;34.72;;;;;;;-4.87;100.00;102690.34;6278491;22;20410;-96
2023/01/24 23:06:55;;;;;;;79.30;33.75;;;;;;;-4.79;100.00;102687.31;6278348;22;20008;-96
2023/01/24 23:09:20;;;;;;;77.07;37.65;;;;;;;-4.71;100.00;102679.22;6278052;22;20011;-95
2023/01/24 23:11:51;;;;;;;77.05;36.40;;;;;;;-4.59;100.00;102694.84;6279116;22;20000;-96
2023/01/24 23:17:05;;;;;;;86.85;39.15;;;;;;;-4.65;100.00;102684.53;6279099;22;20072;-95
2023/01/24 23:22:36;;;;;;;77.13;36.15;;;;;;;-4.76;100.00;102672.34;6263363;22;20012;-94
2023/01/24 23:25:04;;;;;;;66.25;35.28;;;;;;;-4.72;100.00;102664.94;6278918;22;20011;-95
2023/01/24 23:27:33;;;;;;;74.00;37.17;;;;;;;-4.80;100.00;102665.47;6278649;22;20426;-96
2023/01/24 23:30:31;;;;;;;72.63;36.83;;;;;;;-4.52;100.00;102710.28;6279265;22;20014;-95
2023/01/24 23:33:39;;;;;;;80.43;38.05;;;;;;;-4.61;100.00;102698.97;6278641;22;20007;-95